sensor_id;sensor_type;location;lat;lon;timestamp;P1;durP1;ratioP1;P2;durP2;ratioP2
37305;SDS011;23193;42.656;21.170;2024-01-27T00:00:20;134.32;;;59.90;;
37305;SDS011;23193;42.656;21.170;2024-01-27T00:02:47;123.72;;;54.03;;
37305;SDS011;23193;42.656;21.170;2024-01-27T00:05:15;180.65;;;76.72;;
37305;SDS011;23193;42.656;21.170;2024-01-27T00:07:42;165.85;;;67.78;;
37305;SDS011;23193;42.656;21.170;2024-01-27T00:10:09;151.63;;;65.45;;
37305;SDS011;23193;42.656;21.170;2024-01-27T00:12:36;134.02;;;59.85;;
37305;SDS011;23193;42.656;21.170;2024-01-27T00:15:03;122.00;;;57.65;;
37305;SDS011;23193;42.656;21.170;2024-01-27T00:17:31;116.45;;;51.40;;
37305;SDS011;23193;42.656;21.170;2024-01-27T00:19:58;120.78;;;54.50;;
37305;SDS011;23193;42.656;21.170;2024-01-27T00:22:25;137.77;;;58.88;;
37305;SDS011;23193;42.656;21.170;2024-01-27T00:24:52;135.82;;;57.38;;
37305;SDS011;23193;42.656;21.170;2024-01-27T00:27:19;137.68;;;60.03;;
37305;SDS011;23193;42.656;21.170;2024-01-27T00:29:46;125.60;;;55.85;;
37305;SDS011;23193;42.656;21.170;2024-01-27T00:32:13;121.20;;;53.70;;
37305;SDS011;23193;42.656;21.170;2024-01-27T00:34:40;119.90;;;54.47;;
37305;SDS011;23193;42.656;21.170;2024-01-27T00:37:07;111.68;;;51.90;;
37305;SDS011;23193;42.656;21.170;2024-01-27T00:39:34;126.40;;;58.38;;
37305;SDS011;23193;42.656;21.170;2024-01-27T00:42:01;112.90;;;51.67;;
37305;SDS011;23193;42.656;21.170;2024-01-27T00:44:28;106.65;;;49.90;;
37305;SDS011;23193;42.656;21.170;2024-01-27T00:46:56;49.20;;;17.83;;
37305;SDS011;23193;42.656;21.170;2024-01-27T00:49:22;82.00;;;39.60;;
37305;SDS011;23193;42.656;21.170;2024-01-27T00:51:50;121.38;;;53.03;;
37305;SDS011;23193;42.656;21.170;2024-01-27T00:54:17;119.32;;;53.63;;
37305;SDS011;23193;42.656;21.170;2024-01-27T00:56:44;118.80;;;57.15;;
37305;SDS011;23193;42.656;21.170;2024-01-27T00:59:11;132.82;;;58.70;;
37305;SDS011;23193;42.656;21.170;2024-01-27T01:01:38;138.65;;;59.35;;
37305;SDS011;23193;42.656;21.170;2024-01-27T01:04:06;149.15;;;63.13;;
37305;SDS011;23193;42.656;21.170;2024-01-27T01:06:34;138.95;;;60.78;;
37305;SDS011;23193;42.656;21.170;2024-01-27T01:09:01;136.02;;;59.65;;
37305;SDS011;23193;42.656;21.170;2024-01-27T01:11:29;122.85;;;54.08;;
37305;SDS011;23193;42.656;21.170;2024-01-27T01:13:56;121.00;;;54.15;;
37305;SDS011;23193;42.656;21.170;2024-01-27T01:16:22;59.47;;;24.73;;
37305;SDS011;23193;42.656;21.170;2024-01-27T01:18:49;47.60;;;19.58;;
37305;SDS011;23193;42.656;21.170;2024-01-27T01:21:17;86.28;;;37.90;;
37305;SDS011;23193;42.656;21.170;2024-01-27T01:23:44;37.67;;;14.85;;
37305;SDS011;23193;42.656;21.170;2024-01-27T01:26:11;35.45;;;13.90;;
37305;SDS011;23193;42.656;21.170;2024-01-27T01:28:38;34.92;;;15.60;;
37305;SDS011;23193;42.656;21.170;2024-01-27T01:31:06;51.33;;;21.42;;
37305;SDS011;23193;42.656;21.170;2024-01-27T01:33:33;44.70;;;18.20;;
37305;SDS011;23193;42.656;21.170;2024-01-27T01:36:00;38.95;;;16.88;;
37305;SDS011;23193;42.656;21.170;2024-01-27T01:38:27;83.93;;;33.65;;
37305;SDS011;23193;42.656;21.170;2024-01-27T01:40:54;47.58;;;20.25;;
37305;SDS011;23193;42.656;21.170;2024-01-27T01:43:21;46.50;;;20.30;;
37305;SDS011;23193;42.656;21.170;2024-01-27T01:45:49;45.42;;;18.05;;
37305;SDS011;23193;42.656;21.170;2024-01-27T01:48:18;43.10;;;17.67;;
37305;SDS011;23193;42.656;21.170;2024-01-27T01:50:45;42.38;;;17.38;;
37305;SDS011;23193;42.656;21.170;2024-01-27T01:53:13;41.38;;;16.13;;
37305;SDS011;23193;42.656;21.170;2024-01-27T01:55:40;53.63;;;25.00;;
37305;SDS011;23193;42.656;21.170;2024-01-27T01:58:07;45.75;;;19.00;;
37305;SDS011;23193;42.656;21.170;2024-01-27T02:00:35;30.15;;;13.32;;
37305;SDS011;23193;42.656;21.170;2024-01-27T02:03:02;27.65;;;10.82;;
37305;SDS011;23193;42.656;21.170;2024-01-27T02:05:30;30.67;;;12.63;;
37305;SDS011;23193;42.656;21.170;2024-01-27T02:07:57;33.67;;;15.95;;
37305;SDS011;23193;42.656;21.170;2024-01-27T02:10:26;22.92;;;10.57;;
37305;SDS011;23193;42.656;21.170;2024-01-27T02:12:53;23.60;;;10.60;;
37305;SDS011;23193;42.656;21.170;2024-01-27T02:15:21;25.42;;;9.80;;
37305;SDS011;23193;42.656;21.170;2024-01-27T02:17:48;21.38;;;8.90;;
37305;SDS011;23193;42.656;21.170;2024-01-27T02:20:16;19.33;;;7.75;;
37305;SDS011;23193;42.656;21.170;2024-01-27T02:22:43;19.60;;;7.45;;
37305;SDS011;23193;42.656;21.170;2024-01-27T02:25:10;27.63;;;9.50;;
37305;SDS011;23193;42.656;21.170;2024-01-27T02:27:37;22.98;;;9.40;;
37305;SDS011;23193;42.656;21.170;2024-01-27T02:30:04;26.40;;;8.93;;
37305;SDS011;23193;42.656;21.170;2024-01-27T02:32:31;29.98;;;13.07;;
37305;SDS011;23193;42.656;21.170;2024-01-27T02:34:59;49.75;;;21.80;;
37305;SDS011;23193;42.656;21.170;2024-01-27T02:37:26;59.80;;;25.65;;
37305;SDS011;23193;42.656;21.170;2024-01-27T02:39:53;53.30;;;21.98;;
37305;SDS011;23193;42.656;21.170;2024-01-27T02:42:20;36.92;;;17.17;;
37305;SDS011;23193;42.656;21.170;2024-01-27T02:44:47;72.43;;;30.52;;
37305;SDS011;23193;42.656;21.170;2024-01-27T02:47:14;74.57;;;32.10;;
37305;SDS011;23193;42.656;21.170;2024-01-27T02:49:41;64.05;;;28.98;;
37305;SDS011;23193;42.656;21.170;2024-01-27T02:52:08;67.35;;;30.52;;
37305;SDS011;23193;42.656;21.170;2024-01-27T02:54:35;55.38;;;23.42;;
37305;SDS011;23193;42.656;21.170;2024-01-27T02:57:03;54.40;;;22.85;;
37305;SDS011;23193;42.656;21.170;2024-01-27T02:59:30;46.00;;;19.25;;
37305;SDS011;23193;42.656;21.170;2024-01-27T03:01:57;34.95;;;15.82;;
37305;SDS011;23193;42.656;21.170;2024-01-27T03:04:24;41.70;;;17.90;;
37305;SDS011;23193;42.656;21.170;2024-01-27T03:06:51;39.28;;;16.48;;
37305;SDS011;23193;42.656;21.170;2024-01-27T03:09:18;47.55;;;16.90;;
37305;SDS011;23193;42.656;21.170;2024-01-27T03:11:45;34.83;;;13.90;;
37305;SDS011;23193;42.656;21.170;2024-01-27T03:14:12;35.08;;;13.57;;
37305;SDS011;23193;42.656;21.170;2024-01-27T03:16:39;23.00;;;12.38;;
37305;SDS011;23193;42.656;21.170;2024-01-27T03:19:06;30.35;;;13.23;;
37305;SDS011;23193;42.656;21.170;2024-01-27T03:21:33;28.15;;;12.45;;
37305;SDS011;23193;42.656;21.170;2024-01-27T03:24:00;30.20;;;13.50;;
37305;SDS011;23193;42.656;21.170;2024-01-27T03:26:27;25.25;;;12.73;;
37305;SDS011;23193;42.656;21.170;2024-01-27T03:28:55;23.95;;;11.70;;
37305;SDS011;23193;42.656;21.170;2024-01-27T03:31:22;26.70;;;11.73;;
37305;SDS011;23193;42.656;21.170;2024-01-27T03:33:49;24.50;;;9.18;;
37305;SDS011;23193;42.656;21.170;2024-01-27T03:36:16;21.38;;;9.43;;
37305;SDS011;23193;42.656;21.170;2024-01-27T03:38:44;23.40;;;9.68;;
37305;SDS011;23193;42.656;21.170;2024-01-27T03:41:11;21.33;;;8.88;;
37305;SDS011;23193;42.656;21.170;2024-01-27T03:43:38;27.25;;;10.43;;
37305;SDS011;23193;42.656;21.170;2024-01-27T03:46:05;26.60;;;11.85;;
37305;SDS011;23193;42.656;21.170;2024-01-27T03:48:33;20.80;;;9.88;;
37305;SDS011;23193;42.656;21.170;2024-01-27T03:51:02;24.85;;;11.95;;
37305;SDS011;23193;42.656;21.170;2024-01-27T03:53:29;30.15;;;11.52;;
37305;SDS011;23193;42.656;21.170;2024-01-27T03:55:56;25.55;;;11.35;;
37305;SDS011;23193;42.656;21.170;2024-01-27T03:58:29;25.85;;;11.20;;
37305;SDS011;23193;42.656;21.170;2024-01-27T04:00:57;27.50;;;12.45;;
37305;SDS011;23193;42.656;21.170;2024-01-27T04:03:24;28.58;;;11.82;;
37305;SDS011;23193;42.656;21.170;2024-01-27T04:05:51;26.55;;;12.63;;
37305;SDS011;23193;42.656;21.170;2024-01-27T04:08:18;30.38;;;13.00;;
37305;SDS011;23193;42.656;21.170;2024-01-27T04:10:45;31.02;;;13.60;;
37305;SDS011;23193;42.656;21.170;2024-01-27T04:13:12;34.45;;;15.77;;
37305;SDS011;23193;42.656;21.170;2024-01-27T04:15:39;27.70;;;13.15;;
37305;SDS011;23193;42.656;21.170;2024-01-27T04:18:07;23.13;;;12.18;;
37305;SDS011;23193;42.656;21.170;2024-01-27T04:20:35;25.35;;;12.25;;
37305;SDS011;23193;42.656;21.170;2024-01-27T04:23:02;23.27;;;9.02;;
37305;SDS011;23193;42.656;21.170;2024-01-27T04:25:29;23.77;;;10.13;;
37305;SDS011;23193;42.656;21.170;2024-01-27T04:27:56;20.85;;;8.73;;
37305;SDS011;23193;42.656;21.170;2024-01-27T04:30:24;27.58;;;11.35;;
37305;SDS011;23193;42.656;21.170;2024-01-27T04:32:51;22.70;;;9.18;;
37305;SDS011;23193;42.656;21.170;2024-01-27T04:35:18;27.67;;;8.70;;
37305;SDS011;23193;42.656;21.170;2024-01-27T04:37:46;25.90;;;8.43;;
37305;SDS011;23193;42.656;21.170;2024-01-27T04:40:13;24.08;;;9.35;;
37305;SDS011;23193;42.656;21.170;2024-01-27T04:42:40;38.95;;;10.70;;
37305;SDS011;23193;42.656;21.170;2024-01-27T04:45:07;35.08;;;11.38;;
37305;SDS011;23193;42.656;21.170;2024-01-27T04:47:35;30.17;;;12.00;;
37305;SDS011;23193;42.656;21.170;2024-01-27T04:50:02;28.48;;;10.40;;
37305;SDS011;23193;42.656;21.170;2024-01-27T04:52:31;21.55;;;9.48;;
37305;SDS011;23193;42.656;21.170;2024-01-27T04:54:57;22.88;;;9.45;;
37305;SDS011;23193;42.656;21.170;2024-01-27T04:57:25;25.10;;;11.32;;
37305;SDS011;23193;42.656;21.170;2024-01-27T04:59:52;32.42;;;14.98;;
37305;SDS011;23193;42.656;21.170;2024-01-27T05:02:19;32.67;;;12.52;;
37305;SDS011;23193;42.656;21.170;2024-01-27T05:04:46;30.70;;;13.30;;
37305;SDS011;23193;42.656;21.170;2024-01-27T05:07:13;23.67;;;11.32;;
37305;SDS011;23193;42.656;21.170;2024-01-27T05:09:41;21.30;;;8.75;;
37305;SDS011;23193;42.656;21.170;2024-01-27T05:12:08;41.28;;;15.43;;
37305;SDS011;23193;42.656;21.170;2024-01-27T05:14:35;28.38;;;11.32;;
37305;SDS011;23193;42.656;21.170;2024-01-27T05:17:02;25.90;;;12.55;;
37305;SDS011;23193;42.656;21.170;2024-01-27T05:19:30;30.90;;;14.18;;
37305;SDS011;23193;42.656;21.170;2024-01-27T05:21:57;20.55;;;9.32;;
37305;SDS011;23193;42.656;21.170;2024-01-27T05:24:24;21.00;;;10.55;;
37305;SDS011;23193;42.656;21.170;2024-01-27T05:26:51;23.55;;;10.10;;
37305;SDS011;23193;42.656;21.170;2024-01-27T05:29:18;21.88;;;10.98;;
37305;SDS011;23193;42.656;21.170;2024-01-27T05:31:45;25.27;;;10.82;;
37305;SDS011;23193;42.656;21.170;2024-01-27T05:34:12;32.53;;;12.65;;
37305;SDS011;23193;42.656;21.170;2024-01-27T05:36:40;23.80;;;11.48;;
37305;SDS011;23193;42.656;21.170;2024-01-27T05:39:07;28.92;;;11.65;;
37305;SDS011;23193;42.656;21.170;2024-01-27T05:41:35;21.52;;;10.07;;
37305;SDS011;23193;42.656;21.170;2024-01-27T05:44:02;23.23;;;9.27;;
37305;SDS011;23193;42.656;21.170;2024-01-27T05:46:29;26.52;;;10.80;;
37305;SDS011;23193;42.656;21.170;2024-01-27T05:48:55;30.23;;;11.57;;
37305;SDS011;23193;42.656;21.170;2024-01-27T05:51:31;25.60;;;11.48;;
37305;SDS011;23193;42.656;21.170;2024-01-27T05:53:58;22.13;;;10.27;;
37305;SDS011;23193;42.656;21.170;2024-01-27T05:56:25;22.52;;;9.38;;
37305;SDS011;23193;42.656;21.170;2024-01-27T05:58:52;20.95;;;8.65;;
37305;SDS011;23193;42.656;21.170;2024-01-27T06:01:19;19.45;;;8.98;;
37305;SDS011;23193;42.656;21.170;2024-01-27T06:03:47;22.88;;;8.52;;
37305;SDS011;23193;42.656;21.170;2024-01-27T06:06:14;19.23;;;8.80;;
37305;SDS011;23193;42.656;21.170;2024-01-27T06:08:41;14.88;;;7.38;;
37305;SDS011;23193;42.656;21.170;2024-01-27T06:11:08;15.00;;;7.45;;
37305;SDS011;23193;42.656;21.170;2024-01-27T06:13:36;17.80;;;8.98;;
37305;SDS011;23193;42.656;21.170;2024-01-27T06:16:08;17.63;;;8.48;;
37305;SDS011;23193;42.656;21.170;2024-01-27T06:18:38;21.10;;;9.52;;
37305;SDS011;23193;42.656;21.170;2024-01-27T06:21:06;19.70;;;9.70;;
37305;SDS011;23193;42.656;21.170;2024-01-27T06:23:33;19.88;;;8.80;;
37305;SDS011;23193;42.656;21.170;2024-01-27T06:26:06;17.52;;;8.70;;
37305;SDS011;23193;42.656;21.170;2024-01-27T06:28:34;19.38;;;9.70;;
37305;SDS011;23193;42.656;21.170;2024-01-27T06:31:02;22.65;;;9.70;;
37305;SDS011;23193;42.656;21.170;2024-01-27T06:33:31;17.38;;;8.48;;
37305;SDS011;23193;42.656;21.170;2024-01-27T06:35:59;20.95;;;9.30;;
37305;SDS011;23193;42.656;21.170;2024-01-27T06:38:29;18.35;;;9.00;;
37305;SDS011;23193;42.656;21.170;2024-01-27T06:40:58;20.48;;;8.88;;
37305;SDS011;23193;42.656;21.170;2024-01-27T06:43:25;19.85;;;9.15;;
37305;SDS011;23193;42.656;21.170;2024-01-27T06:45:52;17.95;;;8.68;;
37305;SDS011;23193;42.656;21.170;2024-01-27T06:48:19;42.70;;;18.73;;
37305;SDS011;23193;42.656;21.170;2024-01-27T06:50:46;19.42;;;9.75;;
37305;SDS011;23193;42.656;21.170;2024-01-27T06:53:13;21.80;;;10.35;;
37305;SDS011;23193;42.656;21.170;2024-01-27T06:55:40;16.92;;;9.02;;
37305;SDS011;23193;42.656;21.170;2024-01-27T06:58:10;16.92;;;7.82;;
37305;SDS011;23193;42.656;21.170;2024-01-27T07:00:37;15.38;;;7.50;;
37305;SDS011;23193;42.656;21.170;2024-01-27T07:03:04;21.10;;;7.65;;
37305;SDS011;23193;42.656;21.170;2024-01-27T07:05:32;11.68;;;6.10;;
37305;SDS011;23193;42.656;21.170;2024-01-27T07:08:06;14.23;;;7.15;;
37305;SDS011;23193;42.656;21.170;2024-01-27T07:10:33;20.38;;;9.73;;
37305;SDS011;23193;42.656;21.170;2024-01-27T07:13:01;57.78;;;30.02;;
37305;SDS011;23193;42.656;21.170;2024-01-27T07:15:28;12.27;;;7.35;;
37305;SDS011;23193;42.656;21.170;2024-01-27T07:17:55;22.98;;;11.98;;
37305;SDS011;23193;42.656;21.170;2024-01-27T07:20:22;12.90;;;7.38;;
37305;SDS011;23193;42.656;21.170;2024-01-27T07:22:51;10.13;;;6.38;;
37305;SDS011;23193;42.656;21.170;2024-01-27T07:25:18;12.18;;;6.85;;
37305;SDS011;23193;42.656;21.170;2024-01-27T07:27:45;11.07;;;6.50;;
37305;SDS011;23193;42.656;21.170;2024-01-27T07:30:14;15.23;;;6.60;;
37305;SDS011;23193;42.656;21.170;2024-01-27T07:32:42;15.38;;;6.63;;
37305;SDS011;23193;42.656;21.170;2024-01-27T07:35:11;9.85;;;5.05;;
37305;SDS011;23193;42.656;21.170;2024-01-27T07:37:38;6.15;;;3.47;;
37305;SDS011;23193;42.656;21.170;2024-01-27T07:40:05;10.05;;;3.55;;
37305;SDS011;23193;42.656;21.170;2024-01-27T07:42:32;6.43;;;2.75;;
37305;SDS011;23193;42.656;21.170;2024-01-27T07:44:59;7.85;;;3.50;;
37305;SDS011;23193;42.656;21.170;2024-01-27T07:47:27;5.82;;;2.85;;
37305;SDS011;23193;42.656;21.170;2024-01-27T07:49:54;6.22;;;2.80;;
37305;SDS011;23193;42.656;21.170;2024-01-27T07:52:21;6.85;;;3.40;;
37305;SDS011;23193;42.656;21.170;2024-01-27T07:54:48;9.77;;;4.60;;
37305;SDS011;23193;42.656;21.170;2024-01-27T07:57:15;5.18;;;2.67;;
37305;SDS011;23193;42.656;21.170;2024-01-27T07:59:42;7.25;;;2.88;;
37305;SDS011;23193;42.656;21.170;2024-01-27T08:02:09;9.88;;;3.15;;
37305;SDS011;23193;42.656;21.170;2024-01-27T08:04:37;7.20;;;3.15;;
37305;SDS011;23193;42.656;21.170;2024-01-27T08:07:04;9.07;;;4.05;;
37305;SDS011;23193;42.656;21.170;2024-01-27T08:09:37;6.20;;;3.35;;
37305;SDS011;23193;42.656;21.170;2024-01-27T08:12:05;7.47;;;2.30;;
37305;SDS011;23193;42.656;21.170;2024-01-27T08:14:33;7.07;;;3.00;;
37305;SDS011;23193;42.656;21.170;2024-01-27T08:17:02;5.50;;;2.35;;
37305;SDS011;23193;42.656;21.170;2024-01-27T08:19:32;5.07;;;2.15;;
37305;SDS011;23193;42.656;21.170;2024-01-27T08:21:59;5.40;;;2.85;;
37305;SDS011;23193;42.656;21.170;2024-01-27T08:24:27;5.72;;;2.25;;
37305;SDS011;23193;42.656;21.170;2024-01-27T08:26:54;7.13;;;2.67;;
37305;SDS011;23193;42.656;21.170;2024-01-27T08:29:21;5.40;;;2.20;;
37305;SDS011;23193;42.656;21.170;2024-01-27T08:31:48;5.93;;;3.22;;
37305;SDS011;23193;42.656;21.170;2024-01-27T08:34:16;4.72;;;2.05;;
37305;SDS011;23193;42.656;21.170;2024-01-27T08:36:43;6.07;;;2.58;;
37305;SDS011;23193;42.656;21.170;2024-01-27T08:39:10;9.23;;;3.88;;
37305;SDS011;23193;42.656;21.170;2024-01-27T08:41:39;12.15;;;4.60;;
37305;SDS011;23193;42.656;21.170;2024-01-27T08:44:06;7.70;;;3.42;;
37305;SDS011;23193;42.656;21.170;2024-01-27T08:46:33;5.90;;;2.30;;
37305;SDS011;23193;42.656;21.170;2024-01-27T08:49:00;9.88;;;2.35;;
37305;SDS011;23193;42.656;21.170;2024-01-27T08:51:27;11.32;;;2.83;;
37305;SDS011;23193;42.656;21.170;2024-01-27T08:53:54;6.38;;;3.22;;
37305;SDS011;23193;42.656;21.170;2024-01-27T08:56:21;4.97;;;2.60;;
37305;SDS011;23193;42.656;21.170;2024-01-27T08:58:48;9.80;;;2.70;;
37305;SDS011;23193;42.656;21.170;2024-01-27T09:01:16;6.82;;;2.95;;
37305;SDS011;23193;42.656;21.170;2024-01-27T09:03:43;20.08;;;2.60;;
37305;SDS011;23193;42.656;21.170;2024-01-27T09:06:11;10.55;;;1.73;;
37305;SDS011;23193;42.656;21.170;2024-01-27T09:08:38;11.52;;;2.42;;
37305;SDS011;23193;42.656;21.170;2024-01-27T09:11:05;13.38;;;2.35;;
37305;SDS011;23193;42.656;21.170;2024-01-27T09:13:33;9.68;;;2.10;;
37305;SDS011;23193;42.656;21.170;2024-01-27T09:16:00;18.33;;;2.95;;
37305;SDS011;23193;42.656;21.170;2024-01-27T09:18:27;7.93;;;1.95;;
37305;SDS011;23193;42.656;21.170;2024-01-27T09:20:55;13.20;;;2.38;;
37305;SDS011;23193;42.656;21.170;2024-01-27T09:23:22;10.30;;;2.38;;
37305;SDS011;23193;42.656;21.170;2024-01-27T09:25:49;6.95;;;2.10;;
37305;SDS011;23193;42.656;21.170;2024-01-27T09:28:16;15.50;;;2.08;;
37305;SDS011;23193;42.656;21.170;2024-01-27T09:30:44;18.95;;;2.90;;
37305;SDS011;23193;42.656;21.170;2024-01-27T09:33:11;11.30;;;3.15;;
37305;SDS011;23193;42.656;21.170;2024-01-27T09:35:38;7.38;;;2.63;;
37305;SDS011;23193;42.656;21.170;2024-01-27T09:38:06;6.60;;;2.08;;
37305;SDS011;23193;42.656;21.170;2024-01-27T09:40:38;6.72;;;1.98;;
37305;SDS011;23193;42.656;21.170;2024-01-27T09:43:05;5.85;;;1.83;;
37305;SDS011;23193;42.656;21.170;2024-01-27T09:45:33;10.02;;;2.20;;
37305;SDS011;23193;42.656;21.170;2024-01-27T09:48:02;6.45;;;2.15;;
37305;SDS011;23193;42.656;21.170;2024-01-27T09:50:30;9.65;;;2.05;;
37305;SDS011;23193;42.656;21.170;2024-01-27T09:52:57;6.30;;;2.65;;
37305;SDS011;23193;42.656;21.170;2024-01-27T09:55:24;6.18;;;2.47;;
37305;SDS011;23193;42.656;21.170;2024-01-27T09:57:51;9.30;;;3.13;;
37305;SDS011;23193;42.656;21.170;2024-01-27T10:00:18;12.90;;;2.03;;
37305;SDS011;23193;42.656;21.170;2024-01-27T10:02:46;5.00;;;2.33;;
37305;SDS011;23193;42.656;21.170;2024-01-27T10:05:14;8.55;;;2.35;;
37305;SDS011;23193;42.656;21.170;2024-01-27T10:07:42;4.95;;;1.83;;
37305;SDS011;23193;42.656;21.170;2024-01-27T10:10:09;8.70;;;2.30;;
37305;SDS011;23193;42.656;21.170;2024-01-27T10:12:40;8.00;;;2.72;;
37305;SDS011;23193;42.656;21.170;2024-01-27T10:15:18;6.05;;;1.55;;
37305;SDS011;23193;42.656;21.170;2024-01-27T10:17:46;13.32;;;2.60;;
37305;SDS011;23193;42.656;21.170;2024-01-27T10:20:13;6.03;;;1.83;;
37305;SDS011;23193;42.656;21.170;2024-01-27T10:22:42;11.77;;;2.38;;
37305;SDS011;23193;42.656;21.170;2024-01-27T10:25:11;11.40;;;2.58;;
37305;SDS011;23193;42.656;21.170;2024-01-27T10:27:39;5.25;;;1.77;;
37305;SDS011;23193;42.656;21.170;2024-01-27T10:30:07;6.63;;;2.10;;
37305;SDS011;23193;42.656;21.170;2024-01-27T10:32:41;5.60;;;2.20;;
37305;SDS011;23193;42.656;21.170;2024-01-27T10:35:09;3.85;;;2.20;;
37305;SDS011;23193;42.656;21.170;2024-01-27T10:37:39;5.40;;;2.17;;
37305;SDS011;23193;42.656;21.170;2024-01-27T10:40:07;5.68;;;2.28;;
37305;SDS011;23193;42.656;21.170;2024-01-27T10:42:37;8.20;;;2.45;;
37305;SDS011;23193;42.656;21.170;2024-01-27T10:45:05;7.32;;;2.40;;
37305;SDS011;23193;42.656;21.170;2024-01-27T10:47:32;5.65;;;1.90;;
37305;SDS011;23193;42.656;21.170;2024-01-27T10:50:00;5.13;;;1.75;;
37305;SDS011;23193;42.656;21.170;2024-01-27T10:52:34;7.30;;;1.90;;
37305;SDS011;23193;42.656;21.170;2024-01-27T10:55:02;8.15;;;1.80;;
37305;SDS011;23193;42.656;21.170;2024-01-27T10:57:30;3.25;;;1.80;;
37305;SDS011;23193;42.656;21.170;2024-01-27T10:59:57;6.30;;;1.88;;
37305;SDS011;23193;42.656;21.170;2024-01-27T11:02:25;11.90;;;2.53;;
37305;SDS011;23193;42.656;21.170;2024-01-27T11:04:52;3.83;;;1.33;;
37305;SDS011;23193;42.656;21.170;2024-01-27T11:07:22;5.45;;;1.55;;
37305;SDS011;23193;42.656;21.170;2024-01-27T11:09:49;10.10;;;1.95;;
37305;SDS011;23193;42.656;21.170;2024-01-27T11:12:18;2.90;;;1.52;;
37305;SDS011;23193;42.656;21.170;2024-01-27T11:14:49;6.40;;;2.22;;
37305;SDS011;23193;42.656;21.170;2024-01-27T11:17:20;4.63;;;2.15;;
37305;SDS011;23193;42.656;21.170;2024-01-27T11:19:47;2.92;;;1.40;;
37305;SDS011;23193;42.656;21.170;2024-01-27T11:22:24;9.60;;;2.03;;
37305;SDS011;23193;42.656;21.170;2024-01-27T11:27:34;10.05;;;2.10;;
37305;SDS011;23193;42.656;21.170;2024-01-27T11:30:02;8.02;;;2.83;;
37305;SDS011;23193;42.656;21.170;2024-01-27T11:32:30;9.55;;;2.80;;
37305;SDS011;23193;42.656;21.170;2024-01-27T11:34:57;6.05;;;2.03;;
37305;SDS011;23193;42.656;21.170;2024-01-27T11:37:29;12.23;;;1.92;;
37305;SDS011;23193;42.656;21.170;2024-01-27T11:40:04;4.97;;;2.20;;
37305;SDS011;23193;42.656;21.170;2024-01-27T11:42:33;4.32;;;1.60;;
37305;SDS011;23193;42.656;21.170;2024-01-27T11:45:00;5.32;;;2.03;;
37305;SDS011;23193;42.656;21.170;2024-01-27T11:47:28;5.97;;;2.53;;
37305;SDS011;23193;42.656;21.170;2024-01-27T11:49:56;12.18;;;2.83;;
37305;SDS011;23193;42.656;21.170;2024-01-27T11:52:25;5.60;;;2.33;;
37305;SDS011;23193;42.656;21.170;2024-01-27T11:54:55;10.05;;;2.22;;
37305;SDS011;23193;42.656;21.170;2024-01-27T11:57:23;11.52;;;2.90;;
37305;SDS011;23193;42.656;21.170;2024-01-27T11:59:50;13.95;;;2.90;;
37305;SDS011;23193;42.656;21.170;2024-01-27T12:02:17;9.32;;;3.22;;
37305;SDS011;23193;42.656;21.170;2024-01-27T12:04:44;5.13;;;2.00;;
37305;SDS011;23193;42.656;21.170;2024-01-27T12:07:11;8.80;;;1.90;;
37305;SDS011;23193;42.656;21.170;2024-01-27T12:09:39;8.38;;;2.00;;
37305;SDS011;23193;42.656;21.170;2024-01-27T12:12:06;3.42;;;1.35;;
37305;SDS011;23193;42.656;21.170;2024-01-27T12:14:50;3.50;;;1.90;;
37305;SDS011;23193;42.656;21.170;2024-01-27T12:17:18;8.70;;;3.72;;
37305;SDS011;23193;42.656;21.170;2024-01-27T12:19:46;7.40;;;3.15;;
37305;SDS011;23193;42.656;21.170;2024-01-27T12:22:22;24.48;;;3.50;;
37305;SDS011;23193;42.656;21.170;2024-01-27T12:24:49;21.50;;;8.57;;
37305;SDS011;23193;42.656;21.170;2024-01-27T12:27:16;11.18;;;3.35;;
37305;SDS011;23193;42.656;21.170;2024-01-27T12:29:49;11.77;;;6.57;;
37305;SDS011;23193;42.656;21.170;2024-01-27T12:32:19;7.78;;;4.07;;
37305;SDS011;23193;42.656;21.170;2024-01-27T12:34:46;5.95;;;3.25;;
37305;SDS011;23193;42.656;21.170;2024-01-27T12:37:15;15.10;;;4.07;;
37305;SDS011;23193;42.656;21.170;2024-01-27T12:39:42;6.80;;;2.42;;
37305;SDS011;23193;42.656;21.170;2024-01-27T12:42:11;13.48;;;3.78;;
37305;SDS011;23193;42.656;21.170;2024-01-27T12:44:38;23.42;;;3.67;;
37305;SDS011;23193;42.656;21.170;2024-01-27T12:47:06;21.52;;;2.42;;
37305;SDS011;23193;42.656;21.170;2024-01-27T12:49:34;15.95;;;3.45;;
37305;SDS011;23193;42.656;21.170;2024-01-27T12:52:02;7.90;;;3.50;;
37305;SDS011;23193;42.656;21.170;2024-01-27T12:54:29;5.38;;;2.60;;
37305;SDS011;23193;42.656;21.170;2024-01-27T12:56:57;7.88;;;2.67;;
37305;SDS011;23193;42.656;21.170;2024-01-27T12:59:24;6.97;;;3.10;;
37305;SDS011;23193;42.656;21.170;2024-01-27T13:01:51;9.30;;;2.55;;
37305;SDS011;23193;42.656;21.170;2024-01-27T13:04:18;5.78;;;2.20;;
37305;SDS011;23193;42.656;21.170;2024-01-27T13:06:45;4.13;;;2.72;;
37305;SDS011;23193;42.656;21.170;2024-01-27T13:09:13;10.27;;;2.83;;
37305;SDS011;23193;42.656;21.170;2024-01-27T13:11:40;4.05;;;2.03;;
37305;SDS011;23193;42.656;21.170;2024-01-27T13:14:08;5.97;;;2.35;;
37305;SDS011;23193;42.656;21.170;2024-01-27T13:16:36;7.13;;;3.03;;
37305;SDS011;23193;42.656;21.170;2024-01-27T13:19:03;7.30;;;2.60;;
37305;SDS011;23193;42.656;21.170;2024-01-27T13:21:30;6.65;;;2.75;;
37305;SDS011;23193;42.656;21.170;2024-01-27T13:23:57;7.60;;;3.40;;
37305;SDS011;23193;42.656;21.170;2024-01-27T13:26:24;3.65;;;1.98;;
37305;SDS011;23193;42.656;21.170;2024-01-27T13:28:53;6.78;;;2.55;;
37305;SDS011;23193;42.656;21.170;2024-01-27T13:31:20;8.10;;;3.10;;
37305;SDS011;23193;42.656;21.170;2024-01-27T13:33:48;9.73;;;2.30;;
37305;SDS011;23193;42.656;21.170;2024-01-27T13:36:15;14.23;;;2.53;;
37305;SDS011;23193;42.656;21.170;2024-01-27T13:38:44;5.55;;;2.15;;
37305;SDS011;23193;42.656;21.170;2024-01-27T13:41:11;8.10;;;2.83;;
37305;SDS011;23193;42.656;21.170;2024-01-27T13:43:38;9.05;;;2.70;;
37305;SDS011;23193;42.656;21.170;2024-01-27T13:46:05;6.07;;;1.80;;
37305;SDS011;23193;42.656;21.170;2024-01-27T13:48:32;8.02;;;2.83;;
37305;SDS011;23193;42.656;21.170;2024-01-27T13:50:59;9.98;;;2.63;;
37305;SDS011;23193;42.656;21.170;2024-01-27T13:53:27;10.88;;;2.30;;
37305;SDS011;23193;42.656;21.170;2024-01-27T13:56:12;7.15;;;2.30;;
37305;SDS011;23193;42.656;21.170;2024-01-27T13:58:39;4.05;;;1.88;;
37305;SDS011;23193;42.656;21.170;2024-01-27T14:01:07;25.10;;;2.85;;
37305;SDS011;23193;42.656;21.170;2024-01-27T14:03:35;13.05;;;2.90;;
37305;SDS011;23193;42.656;21.170;2024-01-27T14:06:05;10.68;;;3.88;;
37305;SDS011;23193;42.656;21.170;2024-01-27T14:08:33;4.45;;;2.35;;
37305;SDS011;23193;42.656;21.170;2024-01-27T14:11:00;4.50;;;1.90;;
37305;SDS011;23193;42.656;21.170;2024-01-27T14:13:27;9.20;;;2.30;;
37305;SDS011;23193;42.656;21.170;2024-01-27T14:15:54;6.57;;;2.40;;
37305;SDS011;23193;42.656;21.170;2024-01-27T14:18:21;6.40;;;2.20;;
37305;SDS011;23193;42.656;21.170;2024-01-27T14:20:49;15.23;;;5.05;;
37305;SDS011;23193;42.656;21.170;2024-01-27T14:23:17;10.23;;;3.20;;
37305;SDS011;23193;42.656;21.170;2024-01-27T14:25:44;10.73;;;3.40;;